sensor_id;sensor_type;location;lat;lon;timestamp;pressure;altitude;pressure_sealevel;temperature;humidity
19023;BME280;35226;48.606;8.858;2022-11-11T00:00:50;97648.81;;;4.74;100.00
19023;BME280;35226;48.606;8.858;2022-11-11T00:03:34;97652.63;;;5.00;100.00
19023;BME280;35226;48.606;8.858;2022-11-11T00:06:18;97655.00;;;5.01;100.00
19023;BME280;35226;48.606;8.858;2022-11-11T00:09:02;97661.25;;;5.02;100.00
19023;BME280;35226;48.606;8.858;2022-11-11T00:11:46;97652.31;;;5.05;100.00
19023;BME280;35226;48.606;8.858;2022-11-11T00:14:30;97652.31;;;5.05;100.00
19023;BME280;35226;48.606;8.858;2022-11-11T00:17:18;97655.19;;;5.15;100.00
19023;BME280;35226;48.606;8.858;2022-11-11T00:20:20;97655.22;;;5.19;100.00
19023;BME280;35226;48.606;8.858;2022-11-11T00:23:25;97651.28;;;5.16;100.00
19023;BME280;35226;48.606;8.858;2022-11-11T00:26:28;97652.06;;;5.17;100.00
19023;BME280;35226;48.606;8.858;2022-11-11T00:29:12;97651.66;;;5.15;100.00
19023;BME280;35226;48.606;8.858;2022-11-11T00:31:57;97648.53;;;5.16;100.00
19023;BME280;35226;48.606;8.858;2022-11-11T00:35:00;97655.59;;;5.17;100.00
19023;BME280;35226;48.606;8.858;2022-11-11T00:38:07;97655.88;;;5.09;100.00
19023;BME280;35226;48.606;8.858;2022-11-11T00:40:51;97662.41;;;4.97;100.00
19023;BME280;35226;48.606;8.858;2022-11-11T00:43:35;97665.16;;;5.01;100.00
19023;BME280;35226;48.606;8.858;2022-11-11T00:46:19;97668.66;;;4.98;100.00
19023;BME280;35226;48.606;8.858;2022-11-11T00:49:22;97670.97;;;4.96;100.00
19023;BME280;35226;48.606;8.858;2022-11-11T00:52:25;97672.84;;;4.88;100.00
19023;BME280;35226;48.606;8.858;2022-11-11T00:55:09;97672.81;;;4.84;100.00
19023;BME280;35226;48.606;8.858;2022-11-11T00:57:53;97683.03;;;4.88;100.00
19023;BME280;35226;48.606;8.858;2022-11-11T01:00:37;97689.28;;;4.88;100.00
19023;BME280;35226;48.606;8.858;2022-11-11T01:03:22;97685.34;;;4.86;100.00
19023;BME280;35226;48.606;8.858;2022-11-11T01:06:06;97682.97;;;4.84;100.00
19023;BME280;35226;48.606;8.858;2022-11-11T01:08:50;97675.47;;;4.77;100.00
19023;BME280;35226;48.606;8.858;2022-11-11T01:11:34;97688.66;;;4.72;100.00
19023;BME280;35226;48.606;8.858;2022-11-11T01:14:18;97672.22;;;4.68;100.00
19023;BME280;35226;48.606;8.858;2022-11-11T01:17:02;97673.66;;;4.59;100.00
19023;BME280;35226;48.606;8.858;2022-11-11T01:19:47;97675.22;;;4.60;100.00
19023;BME280;35226;48.606;8.858;2022-11-11T01:22:31;97677.47;;;4.54;100.00
19023;BME280;35226;48.606;8.858;2022-11-11T01:25:15;97673.59;;;4.55;100.00
19023;BME280;35226;48.606;8.858;2022-11-11T01:27:59;97679.78;;;4.52;100.00
19023;BME280;35226;48.606;8.858;2022-11-11T01:30:44;97684.66;;;4.36;100.00
19023;BME280;35226;48.606;8.858;2022-11-11T01:33:28;97688.50;;;4.58;100.00
19023;BME280;35226;48.606;8.858;2022-11-11T01:36:14;97696.22;;;4.52;100.00
19023;BME280;35226;48.606;8.858;2022-11-11T01:38:59;97697.06;;;4.56;100.00
19023;BME280;35226;48.606;8.858;2022-11-11T01:41:43;97700.22;;;4.58;100.00
19023;BME280;35226;48.606;8.858;2022-11-11T01:44:45;97692.44;;;4.60;100.00
19023;BME280;35226;48.606;8.858;2022-11-11T01:47:30;97693.75;;;4.43;100.00
19023;BME280;35226;48.606;8.858;2022-11-11T01:50:34;97689.94;;;4.52;100.00
19023;BME280;35226;48.606;8.858;2022-11-11T01:53:18;97690.00;;;4.55;100.00
19023;BME280;35226;48.606;8.858;2022-11-11T01:56:03;97686.81;;;4.50;100.00
19023;BME280;35226;48.606;8.858;2022-11-11T01:58:49;97689.13;;;4.47;100.00
19023;BME280;35226;48.606;8.858;2022-11-11T02:01:35;97693.38;;;4.45;100.00
19023;BME280;35226;48.606;8.858;2022-11-11T02:04:19;97692.13;;;4.39;100.00
19023;BME280;35226;48.606;8.858;2022-11-11T02:07:23;97697.91;;;4.34;100.00
19023;BME280;35226;48.606;8.858;2022-11-11T02:10:09;97694.75;;;4.32;100.00
19023;BME280;35226;48.606;8.858;2022-11-11T02:12:53;97685.34;;;4.29;100.00
19023;BME280;35226;48.606;8.858;2022-11-11T02:15:56;97681.34;;;4.23;100.00
19023;BME280;35226;48.606;8.858;2022-11-11T02:18:42;97679.72;;;4.19;100.00
19023;BME280;35226;48.606;8.858;2022-11-11T02:21:37;97672.59;;;4.14;100.00
19023;BME280;35226;48.606;8.858;2022-11-11T02:24:26;97675.34;;;4.14;100.00
19023;BME280;35226;48.606;8.858;2022-11-11T02:27:15;97673.72;;;4.09;100.00
19023;BME280;35226;48.606;8.858;2022-11-11T02:30:00;97676.03;;;4.07;100.00
19023;BME280;35226;48.606;8.858;2022-11-11T02:32:48;97687.03;;;4.11;100.00
19023;BME280;35226;48.606;8.858;2022-11-11T02:35:33;97693.25;;;4.12;100.00
19023;BME280;35226;48.606;8.858;2022-11-11T02:38:17;97695.53;;;4.06;100.00
19023;BME280;35226;48.606;8.858;2022-11-11T02:41:01;97684.84;;;3.97;100.00
19023;BME280;35226;48.606;8.858;2022-11-11T02:44:04;97688.38;;;3.98;100.00
19023;BME280;35226;48.606;8.858;2022-11-11T02:46:48;97697.78;;;4.00;100.00
19023;BME280;35226;48.606;8.858;2022-11-11T02:49:32;97692.69;;;3.99;100.00
19023;BME280;35226;48.606;8.858;2022-11-11T02:52:16;97697.28;;;3.95;100.00
19023;BME280;35226;48.606;8.858;2022-11-11T02:55:01;97689.81;;;3.92;100.00
19023;BME280;35226;48.606;8.858;2022-11-11T02:57:45;97694.38;;;3.84;100.00
19023;BME280;35226;48.606;8.858;2022-11-11T03:00:29;97694.81;;;3.86;100.00
19023;BME280;35226;48.606;8.858;2022-11-11T03:03:13;97690.13;;;3.87;100.00
19023;BME280;35226;48.606;8.858;2022-11-11T03:05:57;97693.66;;;3.87;100.00
19023;BME280;35226;48.606;8.858;2022-11-11T03:08:41;97701.31;;;3.78;100.00
19023;BME280;35226;48.606;8.858;2022-11-11T03:11:25;97701.16;;;3.90;100.00
19023;BME280;35226;48.606;8.858;2022-11-11T03:14:12;97695.97;;;3.85;100.00
19023;BME280;35226;48.606;8.858;2022-11-11T03:16:56;97692.88;;;3.87;100.00
19023;BME280;35226;48.606;8.858;2022-11-11T03:19:59;97686.97;;;3.85;100.00
19023;BME280;35226;48.606;8.858;2022-11-11T03:23:12;97689.66;;;3.81;100.00
19023;BME280;35226;48.606;8.858;2022-11-11T03:25:56;97696.94;;;3.73;100.00
19023;BME280;35226;48.606;8.858;2022-11-11T03:28:40;97695.44;;;3.76;100.00
19023;BME280;35226;48.606;8.858;2022-11-11T03:31:24;97691.72;;;3.65;100.00
19023;BME280;35226;48.606;8.858;2022-11-11T03:34:08;97686.59;;;3.63;100.00
19023;BME280;35226;48.606;8.858;2022-11-11T03:37:03;97681.53;;;3.62;100.00
19023;BME280;35226;48.606;8.858;2022-11-11T03:40:06;97686.41;;;3.53;100.00
19023;BME280;35226;48.606;8.858;2022-11-11T03:42:50;97691.47;;;3.51;100.00
19023;BME280;35226;48.606;8.858;2022-11-11T03:45:34;97688.59;;;3.44;100.00
19023;BME280;35226;48.606;8.858;2022-11-11T03:48:18;97686.72;;;3.48;100.00
19023;BME280;35226;48.606;8.858;2022-11-11T03:51:02;97688.59;;;3.44;100.00
19023;BME280;35226;48.606;8.858;2022-11-11T03:53:46;97689.56;;;3.32;100.00
19023;BME280;35226;48.606;8.858;2022-11-11T03:56:30;97690.72;;;3.31;100.00
19023;BME280;35226;48.606;8.858;2022-11-11T03:59:14;97690.72;;;3.31;100.00
19023;BME280;35226;48.606;8.858;2022-11-11T04:01:58;97687.03;;;3.23;100.00
19023;BME280;35226;48.606;8.858;2022-11-11T04:05:01;97690.56;;;3.24;100.00
19023;BME280;35226;48.606;8.858;2022-11-11T04:08:04;97681.09;;;3.18;100.00
19023;BME280;35226;48.606;8.858;2022-11-11T04:11:15;97679.53;;;3.17;100.00
19023;BME280;35226;48.606;8.858;2022-11-11T04:14:04;97690.31;;;3.10;100.00
19023;BME280;35226;48.606;8.858;2022-11-11T04:17:08;97695.41;;;3.11;100.00
19023;BME280;35226;48.606;8.858;2022-11-11T04:19:52;97696.84;;;3.05;100.00
19023;BME280;35226;48.606;8.858;2022-11-11T04:22:54;97700.00;;;3.07;100.00
19023;BME280;35226;48.606;8.858;2022-11-11T04:25:38;97702.59;;;3.00;100.00
19023;BME280;35226;48.606;8.858;2022-11-11T04:28:31;97704.47;;;2.96;100.00
19023;BME280;35226;48.606;8.858;2022-11-11T04:31:34;97703.53;;;2.88;100.00
19023;BME280;35226;48.606;8.858;2022-11-11T04:34:18;97707.34;;;2.84;100.00
19023;BME280;35226;48.606;8.858;2022-11-11T04:37:02;97701.50;;;2.85;100.00
19023;BME280;35226;48.606;8.858;2022-11-11T04:39:46;97696.00;;;2.82;100.00
19023;BME280;35226;48.606;8.858;2022-11-11T04:42:52;97693.97;;;2.79;100.00
19023;BME280;35226;48.606;8.858;2022-11-11T04:45:36;97699.44;;;2.79;100.00
19023;BME280;35226;48.606;8.858;2022-11-11T04:48:21;97703.31;;;2.78;100.00
19023;BME280;35226;48.606;8.858;2022-11-11T04:51:05;97703.03;;;2.83;100.00
19023;BME280;35226;48.606;8.858;2022-11-11T04:53:49;97698.72;;;2.82;100.00
19023;BME280;35226;48.606;8.858;2022-11-11T04:56:33;97710.69;;;2.77;100.00
19023;BME280;35226;48.606;8.858;2022-11-11T04:59:37;97701.72;;;2.77;100.00
19023;BME280;35226;48.606;8.858;2022-11-11T05:02:21;97707.25;;;2.80;100.00
19023;BME280;35226;48.606;8.858;2022-11-11T05:05:24;97715.44;;;2.80;100.00
19023;BME280;35226;48.606;8.858;2022-11-11T05:08:09;97721.69;;;2.81;100.00
19023;BME280;35226;48.606;8.858;2022-11-11T05:11:12;97720.78;;;2.73;100.00
19023;BME280;35226;48.606;8.858;2022-11-11T05:13:58;97730.59;;;2.78;100.00
19023;BME280;35226;48.606;8.858;2022-11-11T05:17:01;97735.78;;;2.83;100.00
19023;BME280;35226;48.606;8.858;2022-11-11T05:20:04;97736.06;;;2.78;100.00
19023;BME280;35226;48.606;8.858;2022-11-11T05:23:07;97740.72;;;2.77;100.00
19023;BME280;35226;48.606;8.858;2022-11-11T05:25:51;97747.19;;;2.69;100.00
19023;BME280;35226;48.606;8.858;2022-11-11T05:28:35;97749.78;;;2.81;100.00
19023;BME280;35226;48.606;8.858;2022-11-11T05:31:18;97754.50;;;2.84;100.00
19023;BME280;35226;48.606;8.858;2022-11-11T05:34:02;97747.91;;;2.85;100.00
19023;BME280;35226;48.606;8.858;2022-11-11T05:36:46;97754.50;;;2.84;100.00
19023;BME280;35226;48.606;8.858;2022-11-11T05:39:30;97763.13;;;2.86;100.00
19023;BME280;35226;48.606;8.858;2022-11-11T05:42:14;97764.22;;;2.82;100.00
19023;BME280;35226;48.606;8.858;2022-11-11T05:44:58;97770.13;;;2.84;100.00
19023;BME280;35226;48.606;8.858;2022-11-11T05:47:42;97776.19;;;2.77;100.00
19023;BME280;35226;48.606;8.858;2022-11-11T05:50:26;97779.28;;;2.76;100.00
19023;BME280;35226;48.606;8.858;2022-11-11T05:53:10;97783.94;;;2.75;100.00
19023;BME280;35226;48.606;8.858;2022-11-11T05:55:54;97793.28;;;2.74;100.00
19023;BME280;35226;48.606;8.858;2022-11-11T05:58:38;97794.94;;;2.79;100.00
19023;BME280;35226;48.606;8.858;2022-11-11T06:01:22;97800.06;;;2.80;100.00
19023;BME280;35226;48.606;8.858;2022-11-11T06:04:07;97807.59;;;2.87;100.00
19023;BME280;35226;48.606;8.858;2022-11-11T06:06:51;97802.34;;;2.78;100.00
19023;BME280;35226;48.606;8.858;2022-11-11T06:09:35;97802.66;;;2.92;100.00
19023;BME280;35226;48.606;8.858;2022-11-11T06:12:19;97798.84;;;2.97;100.00
19023;BME280;35226;48.606;8.858;2022-11-11T06:15:03;97806.69;;;2.98;100.00
19023;BME280;35226;48.606;8.858;2022-11-11T06:17:47;97809.28;;;2.76;100.00
19023;BME280;35226;48.606;8.858;2022-11-11T06:20:32;97802.59;;;2.89;100.00
19023;BME280;35226;48.606;8.858;2022-11-11T06:23:18;97813.41;;;2.85;100.00
19023;BME280;35226;48.606;8.858;2022-11-11T06:26:02;97820.09;;;2.88;100.00
19023;BME280;35226;48.606;8.858;2022-11-11T06:28:56;97823.63;;;2.88;100.00
19023;BME280;35226;48.606;8.858;2022-11-11T06:31:40;97811.66;;;2.93;100.00
19023;BME280;35226;48.606;8.858;2022-11-11T06:34:24;97815.88;;;2.90;100.00
19023;BME280;35226;48.606;8.858;2022-11-11T06:37:08;97816.22;;;2.89;100.00
19023;BME280;35226;48.606;8.858;2022-11-11T06:39:52;97826.34;;;2.88;100.00
19023;BME280;35226;48.606;8.858;2022-11-11T06:42:36;97830.56;;;2.86;100.00
19023;BME280;35226;48.606;8.858;2022-11-11T06:45:20;97828.69;;;2.71;100.00
19023;BME280;35226;48.606;8.858;2022-11-11T06:48:05;97830.66;;;2.89;100.00
19023;BME280;35226;48.606;8.858;2022-11-11T06:50:50;97834.53;;;2.88;100.00
19023;BME280;35226;48.606;8.858;2022-11-11T06:53:34;97835.34;;;2.89;100.00
19023;BME280;35226;48.606;8.858;2022-11-11T06:56:19;97831.66;;;2.81;100.00
19023;BME280;35226;48.606;8.858;2022-11-11T06:59:03;97837.91;;;2.82;100.00
19023;BME280;35226;48.606;8.858;2022-11-11T07:01:49;97840.34;;;2.87;100.00
19023;BME280;35226;48.606;8.858;2022-11-11T07:04:33;97840.78;;;2.89;100.00
19023;BME280;35226;48.606;8.858;2022-11-11T07:07:17;97848.69;;;2.94;100.00
19023;BME280;35226;48.606;8.858;2022-11-11T07:10:01;97849.44;;;2.91;100.00
19023;BME280;35226;48.606;8.858;2022-11-11T07:12:45;97854.44;;;2.89;100.00
19023;BME280;35226;48.606;8.858;2022-11-11T07:15:29;97848.38;;;2.80;100.00
19023;BME280;35226;48.606;8.858;2022-11-11T07:18:13;97847.34;;;2.69;100.00
19023;BME280;35226;48.606;8.858;2022-11-11T07:20:57;97853.56;;;2.85;100.00
19023;BME280;35226;48.606;8.858;2022-11-11T07:23:41;97855.19;;;2.70;100.00
19023;BME280;35226;48.606;8.858;2022-11-11T07:26:25;97860.50;;;2.98;100.00
19023;BME280;35226;48.606;8.858;2022-11-11T07:29:12;97862.09;;;2.99;100.00
19023;BME280;35226;48.606;8.858;2022-11-11T07:31:57;97858.38;;;3.07;100.00
19023;BME280;35226;48.606;8.858;2022-11-11T07:34:42;97866.19;;;3.09;100.00
19023;BME280;35226;48.606;8.858;2022-11-11T07:37:28;97863.38;;;3.05;100.00
19023;BME280;35226;48.606;8.858;2022-11-11T07:40:15;97861.09;;;3.07;100.00
19023;BME280;35226;48.606;8.858;2022-11-11T07:42:59;97862.19;;;2.87;100.00
19023;BME280;35226;48.606;8.858;2022-11-11T07:45:43;97865.88;;;2.94;100.00
19023;BME280;35226;48.606;8.858;2022-11-11T07:48:27;97869.19;;;3.04;100.00
19023;BME280;35226;48.606;8.858;2022-11-11T07:51:11;97864.41;;;3.16;100.00
19023;BME280;35226;48.606;8.858;2022-11-11T07:53:54;97866.44;;;3.19;100.00
19023;BME280;35226;48.606;8.858;2022-11-11T07:56:39;97867.03;;;3.28;100.00
19023;BME280;35226;48.606;8.858;2022-11-11T07:59:23;97871.19;;;3.22;100.00
19023;BME280;35226;48.606;8.858;2022-11-11T08:02:10;97875.66;;;3.30;100.00
19023;BME280;35226;48.606;8.858;2022-11-11T08:04:54;97877.59;;;3.30;100.00
19023;BME280;35226;48.606;8.858;2022-11-11T08:07:38;97879.91;;;3.28;100.00
19023;BME280;35226;48.606;8.858;2022-11-11T08:10:22;97876.69;;;3.42;100.00
19023;BME280;35226;48.606;8.858;2022-11-11T08:13:09;97873.66;;;3.47;100.00
19023;BME280;35226;48.606;8.858;2022-11-11T08:16:14;97871.88;;;3.54;100.00
19023;BME280;35226;48.606;8.858;2022-11-11T08:18:58;97869.22;;;3.58;100.00
19023;BME280;35226;48.606;8.858;2022-11-11T08:21:42;97870.13;;;3.65;100.00
19023;BME280;35226;48.606;8.858;2022-11-11T08:24:26;97866.78;;;3.72;100.00
19023;BME280;35226;48.606;8.858;2022-11-11T08:27:10;97875.47;;;3.78;100.00
19023;BME280;35226;48.606;8.858;2022-11-11T08:29:54;97881.03;;;3.81;100.00
19023;BME280;35226;48.606;8.858;2022-11-11T08:32:38;97864.66;;;3.85;100.00
19023;BME280;35226;48.606;8.858;2022-11-11T08:35:22;97864.63;;;3.81;100.00
19023;BME280;35226;48.606;8.858;2022-11-11T08:38:06;97869.13;;;3.93;100.00
19023;BME280;35226;48.606;8.858;2022-11-11T08:40:51;97872.41;;;4.02;100.00
19023;BME280;35226;48.606;8.858;2022-11-11T08:43:35;97871.50;;;3.94;100.00
19023;BME280;35226;48.606;8.858;2022-11-11T08:46:21;97867.22;;;4.16;100.00
19023;BME280;35226;48.606;8.858;2022-11-11T08:49:05;97863.03;;;4.22;100.00
19023;BME280;35226;48.606;8.858;2022-11-11T08:51:49;97861.38;;;4.18;100.00
19023;BME280;35226;48.606;8.858;2022-11-11T08:54:33;97857.56;;;4.22;100.00
19023;BME280;35226;48.606;8.858;2022-11-11T08:57:17;97855.88;;;4.37;100.00
19023;BME280;35226;48.606;8.858;2022-11-11T09:00:03;97854.34;;;4.39;100.00
19023;BME280;35226;48.606;8.858;2022-11-11T09:02:48;97845.16;;;4.51;100.00
19023;BME280;35226;48.606;8.858;2022-11-11T09:05:32;97849.53;;;4.56;100.00
19023;BME280;35226;48.606;8.858;2022-11-11T09:08:17;97841.75;;;4.58;100.00
19023;BME280;35226;48.606;8.858;2022-11-11T09:11:01;97842.66;;;4.65;100.00
19023;BME280;35226;48.606;8.858;2022-11-11T09:13:46;97843.56;;;4.73;100.00
19023;BME280;35226;48.606;8.858;2022-11-11T09:16:30;97845.56;;;4.76;100.00
19023;BME280;35226;48.606;8.858;2022-11-11T09:19:14;97848.84;;;4.85;100.00
19023;BME280;35226;48.606;8.858;2022-11-11T09:21:58;97852.88;;;4.95;100.00
19023;BME280;35226;48.606;8.858;2022-11-11T09:24:42;97841.59;;;5.00;100.00
19023;BME280;35226;48.606;8.858;2022-11-11T09:27:25;97835.50;;;5.10;100.00
19023;BME280;35226;48.606;8.858;2022-11-11T09:30:10;97842.69;;;5.18;100.00
19023;BME280;35226;48.606;8.858;2022-11-11T09:33:00;97839.00;;;5.37;100.00
19023;BME280;35226;48.606;8.858;2022-11-11T09:35:44;97848.16;;;5.48;100.00
19023;BME280;35226;48.606;8.858;2022-11-11T09:38:31;97842.69;;;5.81;100.00
19023;BME280;35226;48.606;8.858;2022-11-11T09:47:53;97835.22;;;6.12;100.00
19023;BME280;35226;48.606;8.858;2022-11-11T09:50:41;97825.81;;;6.53;100.00
19023;BME280;35226;48.606;8.858;2022-11-11T09:53:32;97827.59;;;6.83;100.00
19023;BME280;35226;48.606;8.858;2022-11-11T09:56:22;97824.19;;;7.00;100.00
19023;BME280;35226;48.606;8.858;2022-11-11T10:01:58;97823.06;;;7.08;100.00
19023;BME280;35226;48.606;8.858;2022-11-11T10:04:51;97820.38;;;7.19;100.00
19023;BME280;35226;48.606;8.858;2022-11-11T10:07:45;97813.00;;;7.33;100.00
19023;BME280;35226;48.606;8.858;2022-11-11T10:10:49;97810.75;;;7.53;100.00
19023;BME280;35226;48.606;8.858;2022-11-11T10:13:36;97811.97;;;7.70;100.00
19023;BME280;35226;48.606;8.858;2022-11-11T10:19:54;97814.75;;;7.80;100.00
19023;BME280;35226;48.606;8.858;2022-11-11T10:22:44;97808.88;;;7.86;100.00
19023;BME280;35226;48.606;8.858;2022-11-11T10:25:29;97807.78;;;8.11;100.00
19023;BME280;35226;48.606;8.858;2022-11-11T10:28:16;97810.53;;;8.18;100.00
19023;BME280;35226;48.606;8.858;2022-11-11T10:31:04;97804.25;;;8.25;100.00
19023;BME280;35226;48.606;8.858;2022-11-11T10:34:05;97803.13;;;8.40;100.00
19023;BME280;35226;48.606;8.858;2022-11-11T10:36:53;97805.09;;;8.50;100.00
19023;BME280;35226;48.606;8.858;2022-11-11T10:42:45;97797.19;;;9.09;100.00
19023;BME280;35226;48.606;8.858;2022-11-11T10:48:22;97794.03;;;9.04;100.00
19023;BME280;35226;48.606;8.858;2022-11-11T10:51:14;97797.91;;;9.27;100.00
19023;BME280;35226;48.606;8.858;2022-11-11T10:54:09;97804.13;;;9.53;100.00
19023;BME280;35226;48.606;8.858;2022-11-11T11:00:04;97807.31;;;9.48;100.00
19023;BME280;35226;48.606;8.858;2022-11-11T11:03:32;97802.97;;;9.47;100.00
19023;BME280;35226;48.606;8.858;2022-11-11T11:06:24;97798.56;;;9.60;100.00
19023;BME280;35226;48.606;8.858;2022-11-11T11:09:23;97803.31;;;9.63;100.00
19023;BME280;35226;48.606;8.858;2022-11-11T11:12:15;97800.50;;;9.74;100.00
19023;BME280;35226;48.606;8.858;2022-11-11T11:15:05;97789.72;;;10.00;100.00
19023;BME280;35226;48.606;8.858;2022-11-11T11:18:02;97792.88;;;9.99;100.00
19023;BME280;35226;48.606;8.858;2022-11-11T11:21:06;97782.19;;;10.05;100.00
19023;BME280;35226;48.606;8.858;2022-11-11T11:23:50;97767.94;;;10.13;100.00
19023;BME280;35226;48.606;8.858;2022-11-11T11:26:46;97773.09;;;10.18;100.00
19023;BME280;35226;48.606;8.858;2022-11-11T11:29:35;97778.09;;;10.30;100.00
19023;BME280;35226;48.606;8.858;2022-11-11T11:32:27;97774.88;;;10.39;100.00
19023;BME280;35226;48.606;8.858;2022-11-11T11:35:41;97764.59;;;10.47;100.00
19023;BME280;35226;48.606;8.858;2022-11-11T11:38:43;97772.41;;;10.52;100.00
19023;BME280;35226;48.606;8.858;2022-11-11T11:41:41;97773.59;;;10.54;100.00
19023;BME280;35226;48.606;8.858;2022-11-11T11:44:30;97770.34;;;10.63;100.00
19023;BME280;35226;48.606;8.858;2022-11-11T11:47:39;97774.22;;;10.72;100.00
19023;BME280;35226;48.606;8.858;2022-11-11T11:54:00;97761.81;;;10.88;100.00
19023;BME280;35226;48.606;8.858;2022-11-11T11:56:49;97761.81;;;10.88;100.00
19023;BME280;35226;48.606;8.858;2022-11-11T11:59:57;97759.81;;;10.92;100.00
19023;BME280;35226;48.606;8.858;2022-11-11T12:06:24;97756.97;;;11.02;100.00
19023;BME280;35226;48.606;8.858;2022-11-11T12:09:32;97758.91;;;11.05;100.00
19023;BME280;35226;48.606;8.858;2022-11-11T12:12:48;97760.81;;;11.12;100.00
19023;BME280;35226;48.606;8.858;2022-11-11T12:15:46;97760.28;;;11.24;100.00
19023;BME280;35226;48.606;8.858;2022-11-11T12:21:38;97751.41;;;11.70;100.00
19023;BME280;35226;48.606;8.858;2022-11-11T12:24:47;97752.44;;;11.53;100.00
19023;BME280;35226;48.606;8.858;2022-11-11T12:27:44;97751.88;;;11.65;100.00
19023;BME280;35226;48.606;8.858;2022-11-11T12:30:37;97750.75;;;11.59;100.00
19023;BME280;35226;48.606;8.858;2022-11-11T12:36:47;97759.03;;;11.63;100.00
19023;BME280;35226;48.606;8.858;2022-11-11T12:39:56;97754.28;;;11.63;100.00
19023;BME280;35226;48.606;8.858;2022-11-11T12:46:48;97756.94;;;11.70;100.00
19023;BME280;35226;48.606;8.858;2022-11-11T12:52:41;97749.06;;;11.69;100.00
19023;BME280;35226;48.606;8.858;2022-11-11T12:55:39;97739.97;;;11.68;100.00
19023;BME280;35226;48.606;8.858;2022-11-11T12:58:38;97742.53;;;11.86;100.00
19023;BME280;35226;48.606;8.858;2022-11-11T13:11:32;97748.41;;;11.92;100.00
19023;BME280;35226;48.606;8.858;2022-11-11T13:14:47;97740.47;;;11.94;100.00
19023;BME280;35226;48.606;8.858;2022-11-11T13:17:34;97745.16;;;11.97;100.00
19023;BME280;35226;48.606;8.858;2022-11-11T13:23:21;97740.34;;;12.01;100.00
19023;BME280;35226;48.606;8.858;2022-11-11T13:26:19;97737.16;;;12.02;100.00
19023;BME280;35226;48.606;8.858;2022-11-11T13:29:31;97740.19;;;12.11;100.00
19023;BME280;35226;48.606;8.858;2022-11-11T13:32:22;97738.25;;;12.08;100.00
19023;BME280;35226;48.606;8.858;2022-11-11T13:38:11;97736.22;;;12.12;100.00
19023;BME280;35226;48.606;8.858;2022-11-11T13:41:06;97735.91;;;12.07;100.00
19023;BME280;35226;48.606;8.858;2022-11-11T13:43:56;97738.63;;;12.10;100.00
19023;BME280;35226;48.606;8.858;2022-11-11T13:46:46;97738.22;;;12.12;100.00
19023;BME280;35226;48.606;8.858;2022-11-11T13:49:34;97739.28;;;12.18;100.00
19023;BME280;35226;48.606;8.858;2022-11-11T13:52:25;97746.41;;;12.19;100.00
19023;BME280;35226;48.606;8.858;2022-11-11T13:58:23;97746.63;;;12.32;100.00
19023;BME280;35226;48.606;8.858;2022-11-11T14:01:09;97746.13;;;12.37;100.00
19023;BME280;35226;48.606;8.858;2022-11-11T14:03:59;97753.19;;;12.41;100.00
19023;BME280;35226;48.606;8.858;2022-11-11T14:12:40;97750.47;;;12.38;100.00
19023;BME280;35226;48.606;8.858;2022-11-11T14:21:06;97748.03;;;12.43;100.00
19023;BME280;35226;48.606;8.858;2022-11-11T14:23:54;97742.72;;;12.52;100.00
19023;BME280;35226;48.606;8.858;2022-11-11T14:26:38;97744.03;;;12.44;100.00
19023;BME280;35226;48.606;8.858;2022-11-11T14:29:27;97743.97;;;12.48;100.00
19023;BME280;35226;48.606;8.858;2022-11-11T14:35:15;97746.50;;;12.39;100.00
19023;BME280;35226;48.606;8.858;2022-11-11T14:47:31;97741.38;;;12.37;100.00
19023;BME280;35226;48.606;8.858;2022-11-11T14:53:29;97740.16;;;12.38;100.00
19023;BME280;35226;48.606;8.858;2022-11-11T14:56:16;97742.16;;;12.38;100.00
19023;BME280;35226;48.606;8.858;2022-11-11T14:59:05;97736.66;;;12.34;100.00
19023;BME280;35226;48.606;8.858;2022-11-11T15:01:52;97736.00;;;12.27;100.00
19023;BME280;35226;48.606;8.858;2022-11-11T15:04:37;97726.56;;;12.24;100.00
19023;BME280;35226;48.606;8.858;2022-11-11T15:07:32;97735.28;;;12.22;100.00
19023;BME280;35226;48.606;8.858;2022-11-11T15:10:27;97736.53;;;12.18;100.00
19023;BME280;35226;48.606;8.858;2022-11-11T15:13:22;97753.97;;;12.15;100.00
19023;BME280;35226;48.606;8.858;2022-11-11T15:32:11;97760.97;;;11.96;100.00
19023;BME280;35226;48.606;8.858;2022-11-11T15:38:20;97751.19;;;11.88;100.00
19023;BME280;35226;48.606;8.858;2022-11-11T15:41:05;97751.72;;;11.79;100.00
19023;BME280;35226;48.606;8.858;2022-11-11T15:43:49;97757.78;;;11.67;100.00
19023;BME280;35226;48.606;8.858;2022-11-11T15:46:39;97764.56;;;11.63;100.00
19023;BME280;35226;48.606;8.858;2022-11-11T15:49:42;97753.63;;;11.52;100.00
19023;BME280;35226;48.606;8.858;2022-11-11T15:52:30;97757.75;;;11.37;100.00
19023;BME280;35226;48.606;8.858;2022-11-11T15:55:24;97764.13;;;11.34;100.00
19023;BME280;35226;48.606;8.858;2022-11-11T16:00:54;97766.72;;;11.14;100.00
19023;BME280;35226;48.606;8.858;2022-11-11T16:03:41;97774.66;;;11.08;100.00
19023;BME280;35226;48.606;8.858;2022-11-11T16:06:28;97772.00;;;10.98;100.00
19023;BME280;35226;48.606;8.858;2022-11-11T16:09:15;97777.31;;;10.82;100.00
19023;BME280;35226;48.606;8.858;2022-11-11T16:12:00;97777.75;;;10.77;100.00
19023;BME280;35226;48.606;8.858;2022-11-11T16:14:48;97775.81;;;10.70;100.00
19023;BME280;35226;48.606;8.858;2022-11-11T16:17:37;97775.94;;;10.56;100.00
19023;BME280;35226;48.606;8.858;2022-11-11T16:20:32;97781.16;;;10.47;100.00
19023;BME280;35226;48.606;8.858;2022-11-11T16:23:20;97783.16;;;10.43;100.00
19023;BME280;35226;48.606;8.858;2022-11-11T16:26:05;97770.19;;;10.36;100.00
19023;BME280;35226;48.606;8.858;2022-11-11T16:28:53;97774.56;;;10.30;100.00
19023;BME280;35226;48.606;8.858;2022-11-11T16:31:38;97772.28;;;10.18;100.00
19023;BME280;35226;48.606;8.858;2022-11-11T16:37:14;97747.50;;;10.00;100.00
19023;BME280;35226;48.606;8.858;2022-11-11T16:40:25;97752.28;;;9.92;100.00
19023;BME280;35226;48.606;8.858;2022-11-11T16:43:31;97759.03;;;9.88;100.00
19023;BME280;35226;48.606;8.858;2022-11-11T16:49:36;97764.63;;;9.77;100.00